createdAt,value
2023-03-21T00:00:29.813Z,100780.63
2023-03-21T00:02:56.497Z,100781.47
2023-03-21T00:05:23.493Z,100783.34
2023-03-21T00:07:50.712Z,100785.31
2023-03-21T00:10:26.768Z,100776.00
2023-03-21T00:12:58.615Z,100787.13
2023-03-21T00:15:40.028Z,100781.03
2023-03-21T00:18:11.572Z,100789.81
2023-03-21T00:20:39.264Z,100780.75
2023-03-21T00:23:06.225Z,100771.44
2023-03-21T00:25:33.269Z,100767.97
2023-03-21T00:30:49.306Z,100764.63
2023-03-21T00:33:22.521Z,100766.41
2023-03-21T00:36:02.625Z,100765.47
2023-03-21T00:38:34.336Z,100769.81
2023-03-21T00:41:10.996Z,100767.78
2023-03-21T00:43:44.330Z,100765.72
2023-03-21T00:46:11.182Z,100761.69
2023-03-21T00:48:39.489Z,100754.34
2023-03-21T00:51:27.939Z,100755.31
2023-03-21T00:53:56.639Z,100767.50
2023-03-21T00:56:26.690Z,100755.22
2023-03-21T00:58:53.450Z,100762.63
2023-03-21T01:01:20.228Z,100757.56
2023-03-21T01:03:51.155Z,100756.03
2023-03-21T01:06:22.014Z,100752.59
2023-03-21T01:08:53.219Z,100749.88
2023-03-21T01:11:23.373Z,100750.16
2023-03-21T01:13:56.234Z,100742.69
2023-03-21T01:16:27.110Z,100746.03
2023-03-21T01:18:53.976Z,100749.13
2023-03-21T01:21:20.838Z,100743.41
2023-03-21T01:23:47.771Z,100745.13
2023-03-21T01:26:15.517Z,100747.84
2023-03-21T01:28:44.465Z,100750.91
2023-03-21T01:31:12.954Z,100750.44
2023-03-21T01:33:40.340Z,100752.03
2023-03-21T01:36:13.018Z,100750.13
2023-03-21T01:38:42.459Z,100749.09
2023-03-21T01:41:20.869Z,100753.38
2023-03-21T01:43:48.757Z,100755.94
2023-03-21T01:46:45.326Z,100759.03
2023-03-21T01:49:36.553Z,100751.25
2023-03-21T01:52:23.857Z,100735.78
2023-03-21T01:54:57.496Z,100741.75
2023-03-21T01:57:42.398Z,100747.84
2023-03-21T02:00:15.609Z,100747.06
2023-03-21T02:03:09.582Z,100756.13
2023-03-21T02:06:00.699Z,100744.66
2023-03-21T02:08:39.688Z,100740.81
2023-03-21T02:11:10.760Z,100745.84
2023-03-21T02:13:41.679Z,100740.97
2023-03-21T02:16:21.662Z,100741.50
2023-03-21T02:19:29.573Z,100745.44
2023-03-21T02:22:18.395Z,100741.41
2023-03-21T02:25:06.163Z,100740.03
2023-03-21T02:27:42.714Z,100739.50
2023-03-21T02:30:37.516Z,100740.28
2023-03-21T02:33:37.743Z,100731.13
2023-03-21T02:36:25.758Z,100731.38
2023-03-21T02:39:02.212Z,100740.03
2023-03-21T02:41:50.784Z,100735.44
2023-03-21T02:44:38.746Z,100738.31
2023-03-21T02:47:09.605Z,100735.00
2023-03-21T02:49:56.942Z,100737.81
2023-03-21T02:52:37.767Z,100739.50
2023-03-21T02:55:20.897Z,100731.81
2023-03-21T02:57:57.521Z,100737.28
2023-03-21T03:00:32.328Z,100737.19
2023-03-21T03:03:09.280Z,100740.19
2023-03-21T03:05:44.583Z,100736.75
2023-03-21T03:08:35.782Z,100740.03
2023-03-21T03:11:26.593Z,100735.38
2023-03-21T03:14:25.131Z,100741.22
2023-03-21T03:17:18.414Z,100742.63
2023-03-21T03:19:55.049Z,100744.56
2023-03-21T03:22:38.815Z,100746.81
2023-03-21T03:25:19.820Z,100740.91
2023-03-21T03:27:54.824Z,100734.50
2023-03-21T03:30:23.805Z,100741.31
2023-03-21T03:32:55.738Z,100745.72
2023-03-21T03:35:24.648Z,100741.97
2023-03-21T03:37:56.646Z,100742.63
2023-03-21T03:40:44.526Z,100745.53
2023-03-21T03:43:47.060Z,100753.47
2023-03-21T03:46:37.219Z,100753.00
2023-03-21T03:49:15.835Z,100746.28
2023-03-21T03:51:54.905Z,100750.97
2023-03-21T03:54:43.391Z,100752.69
2023-03-21T03:57:12.625Z,100749.59
2023-03-21T03:59:41.678Z,100750.13
2023-03-21T04:02:17.667Z,100738.19
2023-03-21T04:04:44.890Z,100750.03
2023-03-21T04:07:11.899Z,100747.03
2023-03-21T04:09:44.699Z,100745.53
2023-03-21T04:12:15.542Z,100749.44
2023-03-21T04:14:55.003Z,100736.38
2023-03-21T04:17:22.138Z,100745.53
2023-03-21T04:19:55.489Z,100739.50
2023-03-21T04:22:24.836Z,100733.94
2023-03-21T04:24:53.399Z,100743.19
2023-03-21T04:27:20.448Z,100750.22
2023-03-21T04:30:05.408Z,100741.19
2023-03-21T04:32:44.963Z,100742.63
2023-03-21T04:35:14.401Z,100738.97
2023-03-21T04:37:41.686Z,100739.63
2023-03-21T04:40:16.767Z,100740.47
2023-03-21T04:42:44.675Z,100742.00
2023-03-21T04:45:12.935Z,100748.78
2023-03-21T04:47:39.943Z,100748.84
2023-03-21T04:50:07.105Z,100747.00
2023-03-21T04:52:34.097Z,100753.06
2023-03-21T04:55:02.149Z,100747.84
2023-03-21T04:57:28.877Z,100744.66
2023-03-21T04:59:55.680Z,100746.91
2023-03-21T05:02:22.546Z,100745.97
2023-03-21T05:04:49.231Z,100745.69
2023-03-21T05:07:16.215Z,100750.03
2023-03-21T05:09:42.915Z,100755.31
2023-03-21T05:12:09.583Z,100752.16
2023-03-21T05:14:36.315Z,100748.25
2023-03-21T05:17:05.613Z,100748.69
2023-03-21T05:19:36.472Z,100747.06
2023-03-21T05:22:10.191Z,100754.50
2023-03-21T05:24:39.392Z,100741.25
2023-03-21T05:27:08.666Z,100751.69
2023-03-21T05:29:41.104Z,100746.16
2023-03-21T05:32:08.688Z,100748.09
2023-03-21T05:34:38.490Z,100745.53
2023-03-21T05:37:07.683Z,100742.47
2023-03-21T05:39:47.612Z,100745.88
2023-03-21T05:42:38.124Z,100744.75
2023-03-21T05:45:20.910Z,100734.69
2023-03-21T05:47:49.771Z,100748.81
2023-03-21T05:50:17.385Z,100755.97
2023-03-21T05:52:52.079Z,100737.78
2023-03-21T05:55:19.368Z,100745.53
2023-03-21T05:57:46.352Z,100748.09
2023-03-21T06:00:25.219Z,100745.63
2023-03-21T06:03:12.456Z,100745.03
2023-03-21T06:06:03.584Z,100755.31
2023-03-21T06:08:47.692Z,100745.47
2023-03-21T06:11:26.931Z,100748.00
2023-03-21T06:14:10.374Z,100746.66
2023-03-21T06:16:37.894Z,100746.56
2023-03-21T06:19:04.865Z,100755.56
2023-03-21T06:22:01.058Z,100756.47
2023-03-21T06:24:28.129Z,100752.91
2023-03-21T06:26:54.988Z,100756.34
2023-03-21T06:29:22.108Z,100758.19
2023-03-21T06:31:50.005Z,100761.88
2023-03-21T06:34:17.457Z,100753.91
2023-03-21T06:36:44.861Z,100754.84
2023-03-21T06:39:15.059Z,100754.94
2023-03-21T06:41:43.057Z,100759.13
2023-03-21T06:44:09.865Z,100756.34
2023-03-21T06:46:45.814Z,100763.50
2023-03-21T06:49:17.158Z,100765.22
2023-03-21T06:51:43.885Z,100764.53
2023-03-21T06:54:21.567Z,100764.53
2023-03-21T06:57:31.521Z,100763.41
2023-03-21T06:59:58.941Z,100764.28
2023-03-21T07:02:26.109Z,100767.78
2023-03-21T07:05:22.393Z,100770.34
2023-03-21T07:07:49.179Z,100770.34
2023-03-21T07:10:16.085Z,100771.03
2023-03-21T07:12:48.171Z,100773.34
2023-03-21T07:15:24.047Z,100772.41
2023-03-21T07:17:52.337Z,100772.38
2023-03-21T07:20:19.459Z,100773.59
2023-03-21T07:22:46.448Z,100773.50
2023-03-21T07:25:14.242Z,100776.59
2023-03-21T07:27:42.352Z,100778.31
2023-03-21T07:30:10.894Z,100777.47
2023-03-21T07:32:40.524Z,100780.03
2023-03-21T07:35:10.504Z,100779.09
2023-03-21T07:37:38.207Z,100777.53
2023-03-21T07:40:10.857Z,100784.53
2023-03-21T07:42:42.067Z,100781.13
2023-03-21T07:45:16.503Z,100788.06
2023-03-21T07:47:45.088Z,100789.00
2023-03-21T07:50:14.240Z,100780.03
2023-03-21T07:52:42.203Z,100782.75
2023-03-21T07:55:09.386Z,100778.31
2023-03-21T07:57:36.765Z,100772.84
2023-03-21T08:00:07.292Z,100767.59
2023-03-21T08:02:39.862Z,100768.56
2023-03-21T08:05:06.727Z,100778.22
2023-03-21T08:07:33.510Z,100770.34
2023-03-21T08:10:00.255Z,100770.09
2023-03-21T08:12:27.184Z,100770.75
2023-03-21T08:14:53.989Z,100775.03
2023-03-21T08:17:21.086Z,100775.00
2023-03-21T08:19:48.022Z,100777.53
2023-03-21T08:22:15.006Z,100776.16
2023-03-21T08:24:41.782Z,100782.41
2023-03-21T08:27:09.078Z,100777.28
2023-03-21T08:29:40.583Z,100777.19
2023-03-21T08:32:07.381Z,100782.50
2023-03-21T08:34:34.359Z,100778.72
2023-03-21T08:37:01.814Z,100772.66
2023-03-21T08:39:28.707Z,100781.31
2023-03-21T08:41:57.415Z,100778.47
2023-03-21T08:44:27.451Z,100777.47
2023-03-21T08:46:54.301Z,100783.19
2023-03-21T08:49:21.147Z,100784.63
2023-03-21T08:51:48.027Z,100779.91
2023-03-21T08:54:20.383Z,100786.69
2023-03-21T08:56:47.674Z,100784.19
2023-03-21T08:59:14.708Z,100777.16
2023-03-21T09:01:42.123Z,100774.34
2023-03-21T09:04:11.174Z,100776.81
2023-03-21T09:06:41.100Z,100780.50
2023-03-21T09:09:11.029Z,100780.91
2023-03-21T09:11:38.073Z,100776.47
2023-03-21T09:14:05.699Z,100775.16
2023-03-21T09:16:33.318Z,100775.88
2023-03-21T09:19:00.609Z,100772.13
2023-03-21T09:21:31.452Z,100783.66
2023-03-21T09:24:00.136Z,100788.03
2023-03-21T09:26:28.285Z,100783.75
2023-03-21T09:28:55.804Z,100777.75
2023-03-21T09:31:23.653Z,100791.03
2023-03-21T09:33:51.801Z,100786.94
2023-03-21T09:36:22.002Z,100779.06
2023-03-21T09:38:49.828Z,100779.06
2023-03-21T09:41:35.211Z,100777.25
2023-03-21T09:44:05.027Z,100781.38
2023-03-21T09:46:45.740Z,100776.63
2023-03-21T09:49:20.557Z,100786.06
2023-03-21T09:51:53.025Z,100777.06
2023-03-21T09:54:36.133Z,100773.53
2023-03-21T09:57:23.489Z,100774.03
2023-03-21T09:59:53.441Z,100774.13
2023-03-21T10:02:36.279Z,100766.06
2023-03-21T10:05:12.116Z,100765.03
2023-03-21T10:07:42.104Z,100763.06
2023-03-21T10:10:18.099Z,100760.31
2023-03-21T10:12:46.182Z,100760.22
2023-03-21T10:15:17.915Z,100755.69
2023-03-21T10:18:10.722Z,100758.06
2023-03-21T10:20:39.800Z,100750.03
2023-03-21T10:23:12.860Z,100752.19
2023-03-21T10:25:46.803Z,100750.66
2023-03-21T10:28:26.073Z,100760.72
2023-03-21T10:30:56.184Z,100747.44
2023-03-21T10:33:26.384Z,100750.19
2023-03-21T10:35:59.213Z,100739.09
2023-03-21T10:38:27.095Z,100740.25
2023-03-21T10:40:54.373Z,100742.06
2023-03-21T10:43:27.302Z,100741.19
2023-03-21T10:45:55.492Z,100743.25
2023-03-21T10:48:23.412Z,100747.28
2023-03-21T10:50:52.774Z,100740.16
2023-03-21T10:53:28.281Z,100731.03
2023-03-21T10:55:57.712Z,100734.03
2023-03-21T10:58:29.650Z,100729.09
2023-03-21T11:01:00.925Z,100729.44
2023-03-21T11:03:31.569Z,100733.25
2023-03-21T11:06:05.961Z,100728.03
2023-03-21T11:08:38.892Z,100735.06
2023-03-21T11:11:08.546Z,100729.66
2023-03-21T11:13:39.911Z,100719.59
2023-03-21T11:16:12.552Z,100729.44
2023-03-21T11:18:44.000Z,100727.00
2023-03-21T11:21:13.202Z,100720.16
2023-03-21T11:23:47.950Z,100715.78
2023-03-21T11:26:36.764Z,100721.69
2023-03-21T11:29:20.366Z,100716.94
2023-03-21T11:31:47.138Z,100718.25
2023-03-21T11:34:28.266Z,100716.47
2023-03-21T11:36:59.681Z,100718.47
2023-03-21T11:39:33.587Z,100713.16
2023-03-21T11:42:00.426Z,100705.75
2023-03-21T11:44:33.846Z,100706.03
2023-03-21T11:47:01.645Z,100698.16
2023-03-21T11:49:28.638Z,100698.72
2023-03-21T11:52:01.419Z,100693.97
2023-03-21T11:54:38.485Z,100679.09
2023-03-21T11:57:18.468Z,100689.97
2023-03-21T11:59:50.504Z,100685.22
2023-03-21T12:02:28.683Z,100691.31
2023-03-21T12:05:13.364Z,100680.69
2023-03-21T12:07:46.346Z,100682.66
2023-03-21T12:10:53.171Z,100677.81
2023-03-21T12:13:22.888Z,100682.09
2023-03-21T12:16:05.153Z,100670.41
2023-03-21T12:18:57.184Z,100676.63
2023-03-21T12:21:33.774Z,100666.72
2023-03-21T12:24:18.050Z,100662.50
2023-03-21T12:27:12.407Z,100660.69
2023-03-21T12:29:54.028Z,100660.38
2023-03-21T12:32:46.569Z,100661.03
2023-03-21T12:35:17.244Z,100659.41
2023-03-21T12:37:57.985Z,100652.59
2023-03-21T12:40:40.776Z,100655.97
2023-03-21T12:43:48.193Z,100654.03
2023-03-21T12:46:34.809Z,100647.66
2023-03-21T12:49:09.283Z,100642.19
2023-03-21T12:51:43.782Z,100643.00
2023-03-21T12:54:27.507Z,100639.03
2023-03-21T12:56:58.236Z,100644.22
2023-03-21T12:59:47.115Z,100630.38
2023-03-21T13:02:25.179Z,100635.09
2023-03-21T13:05:01.475Z,100626.06
2023-03-21T13:07:33.817Z,100618.63
2023-03-21T13:10:02.298Z,100626.72
2023-03-21T13:12:40.679Z,100612.94
2023-03-21T13:15:32.320Z,100612.56
2023-03-21T13:17:59.476Z,100615.22
2023-03-21T13:20:32.365Z,100603.31
2023-03-21T13:23:00.150Z,100600.75
2023-03-21T13:25:33.319Z,100601.81
2023-03-21T13:28:04.727Z,100597.81
2023-03-21T13:30:32.561Z,100588.34
2023-03-21T13:33:13.784Z,100593.44
2023-03-21T13:35:43.239Z,100586.94
2023-03-21T13:38:25.866Z,100586.53
2023-03-21T13:41:01.614Z,100581.84
2023-03-21T13:43:44.662Z,100592.16
2023-03-21T13:46:53.403Z,100583.31
2023-03-21T13:49:35.045Z,100585.00
2023-03-21T13:52:22.001Z,100579.91
2023-03-21T13:54:52.442Z,100574.06
2023-03-21T13:57:38.809Z,100576.59
2023-03-21T14:00:19.064Z,100577.16
2023-03-21T14:03:06.342Z,100570.94
2023-03-21T14:05:35.451Z,100565.22
2023-03-21T14:08:15.200Z,100569.50
2023-03-21T14:10:47.551Z,100562.16
2023-03-21T14:13:20.724Z,100553.66
2023-03-21T14:15:55.965Z,100553.44
2023-03-21T14:18:52.280Z,100553.44
2023-03-21T14:21:35.653Z,100551.41
2023-03-21T14:24:08.065Z,100550.16
2023-03-21T14:26:44.338Z,100545.78
2023-03-21T14:29:26.092Z,100546.94
2023-03-21T14:31:56.405Z,100538.63
2023-03-21T14:34:29.978Z,100539.41
2023-03-21T14:37:08.426Z,100540.88
2023-03-21T14:39:35.603Z,100539.50
2023-03-21T14:42:12.039Z,100537.59
2023-03-21T14:44:54.045Z,100533.56
2023-03-21T14:47:24.585Z,100527.72
2023-03-21T14:49:51.643Z,100521.00
2023-03-21T14:52:36.196Z,100521.84
2023-03-21T14:55:16.795Z,100519.94
2023-03-21T14:57:45.195Z,100519.53
2023-03-21T15:00:27.839Z,100513.34
2023-03-21T15:02:59.377Z,100514.63
2023-03-21T15:05:38.798Z,100511.00
2023-03-21T15:08:22.178Z,100510.34
2023-03-21T15:12:20.549Z,100504.81
2023-03-21T15:14:34.288Z,100500.56
2023-03-21T15:17:18.841Z,100497.16
2023-03-21T15:20:26.598Z,100489.63
2023-03-21T15:23:00.779Z,100493.88
2023-03-21T15:25:32.226Z,100483.22
2023-03-21T15:27:59.021Z,100481.28
2023-03-21T15:30:31.496Z,100489.94
2023-03-21T15:32:59.595Z,100482.25
2023-03-21T15:35:51.757Z,100484.19
2023-03-21T15:38:24.787Z,100487.78
2023-03-21T15:40:52.271Z,100480.13
2023-03-21T15:43:20.041Z,100482.28
2023-03-21T15:45:55.366Z,100483.94
2023-03-21T15:48:29.088Z,100482.56
2023-03-21T15:50:55.848Z,100481.53
2023-03-21T15:53:23.611Z,100473.44
2023-03-21T15:55:52.782Z,100470.13
2023-03-21T15:58:22.251Z,100476.09
2023-03-21T16:00:54.419Z,100474.28
2023-03-21T16:03:33.748Z,100470.56
2023-03-21T16:06:29.047Z,100470.66
2023-03-21T16:09:23.548Z,100465.25
2023-03-21T16:11:58.962Z,100468.00
2023-03-21T16:14:28.332Z,100457.47
2023-03-21T16:16:56.507Z,100457.34
2023-03-21T16:19:24.733Z,100452.25
2023-03-21T16:21:52.794Z,100450.53
2023-03-21T16:24:19.637Z,100455.97
2023-03-21T16:26:50.884Z,100456.75
2023-03-21T16:29:20.183Z,100459.41
2023-03-21T16:31:48.499Z,100456.81
2023-03-21T16:34:18.041Z,100451.50
2023-03-21T16:36:44.871Z,100451.50
2023-03-21T16:39:19.590Z,100455.88
2023-03-21T16:41:47.409Z,100454.16
2023-03-21T16:44:14.668Z,100459.47
2023-03-21T16:46:41.611Z,100453.44
2023-03-21T16:49:18.831Z,100455.13
2023-03-21T16:51:45.818Z,100453.09
2023-03-21T16:54:12.752Z,100452.66
2023-03-21T16:56:45.050Z,100455.44
2023-03-21T16:59:16.456Z,100452.56
2023-03-21T17:01:46.287Z,100460.00
2023-03-21T17:04:17.829Z,100451.31
2023-03-21T17:06:55.032Z,100450.78
2023-03-21T17:13:22.306Z,100445.69
2023-03-21T17:15:49.123Z,100439.91
2023-03-21T17:18:16.014Z,100438.84
2023-03-21T17:20:42.846Z,100438.66
2023-03-21T17:23:10.426Z,100435.34
2023-03-21T17:25:38.356Z,100437.25
2023-03-21T17:28:05.403Z,100435.00
2023-03-21T17:30:37.472Z,100436.94
2023-03-21T17:33:04.556Z,100439.72
2023-03-21T17:35:35.471Z,100432.47
2023-03-21T17:38:03.808Z,100434.38
2023-03-21T17:40:32.040Z,100434.38
2023-03-21T17:49:54.046Z,100431.31
2023-03-21T18:00:36.445Z,100422.03
2023-03-21T18:15:44.065Z,100422.47
2023-03-21T18:18:12.130Z,100431.09
2023-03-21T18:20:52.270Z,100423.94
2023-03-21T18:23:21.010Z,100419.69
2023-03-21T18:25:47.901Z,100416.91
2023-03-21T18:28:19.440Z,100412.69
2023-03-21T18:33:40.618Z,100416.31
2023-03-21T18:36:09.279Z,100421.50
2023-03-21T18:38:37.156Z,100415.25
2023-03-21T18:41:04.980Z,100415.25
2023-03-21T18:44:01.426Z,100416.41
2023-03-21T18:46:19.063Z,100416.41
2023-03-21T18:48:46.620Z,100418.72
2023-03-21T18:51:13.734Z,100412.34
2023-03-21T18:53:40.526Z,100416.91
2023-03-21T18:56:10.219Z,100409.69
2023-03-21T18:58:37.377Z,100414.78
2023-03-21T19:01:05.172Z,100408.94
2023-03-21T19:03:36.960Z,100409.16
2023-03-21T19:06:05.678Z,100403.94
2023-03-21T19:08:34.907Z,100415.78
2023-03-21T19:11:05.926Z,100411.50
2023-03-21T19:13:33.561Z,100414.16
2023-03-21T19:16:02.354Z,100409.69
2023-03-21T19:18:52.971Z,100414.28
2023-03-21T19:21:18.798Z,100416.00
2023-03-21T19:24:20.843Z,100422.25
2023-03-21T19:26:32.582Z,100419.91
2023-03-21T19:28:59.258Z,100421.63
2023-03-21T19:31:26.892Z,100410.75
2023-03-21T19:33:53.638Z,100417.25
2023-03-21T19:36:22.958Z,100417.06
2023-03-21T19:38:50.708Z,100409.28
2023-03-21T19:41:18.536Z,100419.78
2023-03-21T19:43:54.267Z,100417.25
2023-03-21T19:46:25.125Z,100407.56
2023-03-21T19:48:56.600Z,100415.75
2023-03-21T19:51:28.717Z,100413.09
2023-03-21T19:53:57.527Z,100412.47
2023-03-21T19:56:27.022Z,100403.66
2023-03-21T19:58:57.310Z,100405.53
2023-03-21T20:01:24.985Z,100403.66
2023-03-21T20:03:52.468Z,100405.66
2023-03-21T20:06:20.014Z,100400.88
2023-03-21T20:09:37.602Z,100401.41
2023-03-21T20:11:34.141Z,100401.63
2023-03-21T20:14:03.321Z,100395.66
2023-03-21T20:16:35.296Z,100400.03
2023-03-21T20:19:08.991Z,100400.16
2023-03-21T20:21:47.622Z,100405.88
2023-03-21T20:24:17.773Z,100410.53
2023-03-21T20:26:45.867Z,100408.84
2023-03-21T20:30:05.709Z,100403.75
2023-03-21T20:31:59.776Z,100407.34
2023-03-21T20:34:26.648Z,100410.78
2023-03-21T20:36:55.925Z,100401.09
2023-03-21T20:39:23.313Z,100401.19
2023-03-21T20:41:50.069Z,100398.94
2023-03-21T20:44:45.146Z,100402.47
2023-03-21T20:47:06.118Z,100394.63
2023-03-21T20:49:35.451Z,100392.16
2023-03-21T20:54:54.248Z,100401.81
2023-03-21T20:57:28.375Z,100394.81
2023-03-21T20:59:59.755Z,100396.63
2023-03-21T21:02:30.791Z,100393.09
2023-03-21T21:05:24.085Z,100402.88
2023-03-21T21:07:47.983Z,100402.47
2023-03-21T21:10:19.786Z,100412.88
2023-03-21T21:12:49.633Z,100423.06
2023-03-21T21:15:19.231Z,100401.34
2023-03-21T21:18:04.840Z,100399.22
2023-03-21T21:20:42.185Z,100407.19
2023-03-21T21:23:10.206Z,100388.59
2023-03-21T21:25:38.112Z,100390.63
2023-03-21T21:28:09.584Z,100369.19
2023-03-21T21:30:38.638Z,100370.88
2023-03-21T21:33:05.753Z,100368.97
2023-03-21T21:35:48.476Z,100366.31
2023-03-21T21:38:17.888Z,100362.69
2023-03-21T21:40:49.786Z,100364.41
2023-03-21T21:43:21.877Z,100369.63
2023-03-21T21:45:53.079Z,100359.19
2023-03-21T21:48:32.238Z,100359.09
2023-03-21T21:51:02.675Z,100359.28
2023-03-21T21:53:35.831Z,100349.72
2023-03-21T21:56:04.364Z,100341.00
2023-03-21T21:59:00.423Z,100351.84
2023-03-21T22:01:34.461Z,100349.28
2023-03-21T22:04:15.905Z,100350.22
2023-03-21T22:06:45.168Z,100351.22
2023-03-21T22:09:16.063Z,100359.72
2023-03-21T22:11:46.460Z,100346.63
2023-03-21T22:14:22.532Z,100356.53
2023-03-21T22:16:52.564Z,100353.88
2023-03-21T22:19:19.588Z,100354.59
2023-03-21T22:21:51.925Z,100355.66
2023-03-21T22:24:19.059Z,100352.16
2023-03-21T22:26:49.813Z,100361.84
2023-03-21T22:29:19.360Z,100364.63
2023-03-21T22:31:47.437Z,100354.06
2023-03-21T22:34:16.821Z,100346.84
2023-03-21T22:36:47.146Z,100352.91
2023-03-21T22:39:13.986Z,100358.22
2023-03-21T22:44:47.587Z,100360.25
2023-03-21T22:47:14.427Z,100355.66
2023-03-21T22:49:42.693Z,100360.13
2023-03-21T22:52:10.311Z,100362.69
2023-03-21T22:54:37.357Z,100347.91
2023-03-21T22:57:04.838Z,100349.63
2023-03-21T22:59:32.282Z,100341.84
2023-03-21T23:02:01.295Z,100347.81
2023-03-21T23:04:30.578Z,100354.81
2023-03-21T23:06:58.638Z,100347.81
2023-03-21T23:09:30.483Z,100354.16
2023-03-21T23:11:57.473Z,100356.81
2023-03-21T23:14:24.390Z,100348.66
2023-03-21T23:16:53.616Z,100360.13
2023-03-21T23:19:22.014Z,100353.13
2023-03-21T23:21:48.880Z,100344.41
2023-03-21T23:24:19.118Z,100344.09
2023-03-21T23:26:48.276Z,100350.34
2023-03-21T23:29:22.168Z,100350.47
2023-03-21T23:31:49.163Z,100342.72
2023-03-21T23:34:18.104Z,100335.47
2023-03-21T23:36:46.270Z,100340.03
2023-03-21T23:39:15.695Z,100341.84
2023-03-21T23:41:45.367Z,100338.22
2023-03-21T23:44:12.304Z,100329.53
2023-03-21T23:46:39.455Z,100334.94
2023-03-21T23:49:11.873Z,100324.28
2023-03-21T23:51:44.935Z,100322.72
2023-03-21T23:54:11.967Z,100310.59
2023-03-21T23:56:40.323Z,100314.53
2023-03-21T23:59:07.389Z,100312.72
